AirNav   Air Wisconsin pilot careers
 
 427 users online  

T05 Charles R Johnson Airport
Port Mansfield, Texas, USA

GOING TO PORT MANSFIELD?


FAA INFORMATION EFFECTIVE 29 MARCH 2018

Location

FAA Identifier: T05
Lat/Long: 26-33-36.5600N / 097-26-21.3000W
26-33.609333N / 097-26.355000W
26.5601556 / -97.4392500
(estimated)
Elevation: 10 ft. / 3 m (estimated)
Variation: 07E (1985)
From city: 1 mile NW of PORT MANSFIELD, TX
Time zone: UTC -5 (UTC -6 during Standard Time)
Zip code: 78598

Airport Operations

Airport use: Open to the public
Activation date: 06/1958
Control tower: no
ARTCC: HOUSTON CENTER
FSS: SAN ANGELO FLIGHT SERVICE STATION
NOTAMs facility: SJT (NOTAM-D service available)
Attendance: UNATNDD
HARBOR SUPERINTENDENT'S OFC ATNDD 0800-1650.
Wind indicator: lighted
Segmented circle: yes
Lights: MIRL RY 12/30 PRESET LOW INTST; TO INCR INTST ACTVT - CTAF.
Beacon: white-green (lighted land airport)
Operates sunset to sunrise.
Landing fee: no, FEE FOR OVERNIGHT TIE DOWN.

Airport Communications

CTAF: 122.9

Nearby radio navigation aids

VOR radial/distance  VOR name  Freq  Var
HRLr025/22.9HARLINGEN VOR/DME109.2005E
BROr346/38.3BROWNSVILLE VORTAC116.3009E

Airport Services

Fuel available: 100LL
FOR FUEL CALL 956-944-2325/2233 DURG NORMAL BUSINESS HRS.
Parking: tiedowns
Airframe service: NONE
Powerplant service: NONE
Bottled oxygen: NONE
Bulk oxygen: NONE

Runway Information

Runway 12/30

Dimensions: 3200 x 50 ft. / 975 x 15 m
Surface: asphalt, in good condition
Weight bearing capacity: 
Single wheel: 21.0
Runway edge lights: medium intensity
RUNWAY 12  RUNWAY 30
Latitude: 26-33.758333N26-33.460667N
Longitude: 097-26.597667W097-26.112833W
Elevation: 9.3 ft.9.6 ft.
Traffic pattern: leftleft
Runway heading: 117 magnetic, 124 true297 magnetic, 304 true
Markings: basic, in good conditionbasic, in good condition
Obstructions: 30 ft. pline, marked, 1460 ft. from runway, 42:1 slope to clear30 ft. pline, 1250 ft. from runway, 34:1 slope to clear

Airport Ownership and Management from official FAA records

Ownership: Publicly-owned
Owner: WILLACY COUNTY NAV DIST
400 W HIDALGO, STE 200
RAYMONDVILLE, TX 78580
Phone 956-689-3332
Manager: FRANK VASQUEZ
818 MANSFIELD DR. UNIT 78
PORT MANSFIELD, TX 78598
Phone 956-944-2325

Airport Operational Statistics

Aircraft operations: 100/year *
100% transient general aviation
* for 12-month period ending 11 January 2017

Additional Remarks

DEER ON & INVOF ARPT.
FOR CD CTC CRP APCH AT 361-299-4230.

Instrument Procedures

There are no published instrument procedures at T05.

Some nearby airports with instrument procedures:

KHRL - Valley International Airport (23 nm SW)
KPIL - Port Isabel-Cameron County Airport (24 nm S)
T65 - Mid Valley Airport (37 nm SW)
KEBG - South Texas International Airport at Edinburg (37 nm W)
KBRO - Brownsville/South Padre Island International Airport (39 nm S)
 
Loc | Ops | Rwys | IFR | FBO | Links
Com | Nav | Svcs | Stats | Notes

AirNav Hotels Sweepstakes
 
Area around T05 (Charles R Johnson Airport)
 
Road maps at: MapQuest Bing Google
 
Aerial photo
WARNING: Photo may not be current or correct
Aerial photo of T05 (Charles R Johnson Airport)
Do you have a better or more recent aerial photo of Charles R Johnson Airport that you would like to share? If so, please send us your photo.

 
Sectional chart

 
Airport distance calculator
Flying to Charles R Johnson Airport? Find the distance to fly.

From to T05

Sunrise and sunset
Times for 26-Apr-2018
 Local
(UTC-5)
 Zulu
(UTC)
Morning civil twilight06:3311:33
Sunrise06:5711:57
Sunset19:5800:58
Evening civil twilight20:2201:22

Current date and time
Zulu (UTC)  26-Apr-2018 05:53:16
Local (UTC-5)  26-Apr-2018 00:53:16
 
METAR
KHRL 
23nm SW 
260452Z 17010KT 10SM FEW027 SCT033 BKN120 19/18 A2999 RMK AO2 WSHFT 0351 LTG DSNT SE AND S RAE18B38E49 TSE12 SLP156 P0002 T01940183
KPIL 
24nm S 
260535Z AUTO 17009KT 10SM SCT022 BKN032 BKN120 21/18 A2999 RMK AO2 RAE0455B15E28 P0000 T02060178
KT65 
37nm SW 
260510Z AUTO 10012G16KT 10SM -DZ SCT110 19/16 A2997 RMK AO2 LTG DSNT NE THRU SW T01870160
KEBG 
38nm W 
260535Z AUTO 00000KT 10SM BKN014 BKN019 BKN024 21/18 A3002 RMK AO2 LTG DSNT S T02130176
KBRO 
40nm S 
260528Z AUTO 36005KT 10SM -RA FEW090 BKN120 19/18 A3003 RMK AO2 PK WND 13027/0454 LTG DSNT SE AND SW TSE03 P0002 T01940178
TAF
KHRL 
23nm SW 
260258Z 2603/2624 08006KT P6SM VCTS OVC035CB TEMPO 2603/2604 VRB25G35KT 3SM TSRA OVC025CB FM261100 01007KT P6SM OVC015 FM261800 05010KT P6SM OVC025
NOTAMs
Click for the latest NOTAMs
NOTAMs are issued by the DoD/FAA and will open in a separate window not controlled by AirNav.

 

 
 

FBO, Fuel Providers, and Aircraft Ground Support

  
 Business Name 
 
 Contact 
 
 Services / Description 
 
Fuel Prices
 
Comments
  
Willacy County Navigation District 956-944-2325
no information available

If you are affiliated with Willacy County Navigation District and would like to show here your services, contact info, web link, logo, and more, click here
100LL
RA $4.60 
 Updated 27-Mar-2018
 
   1 read write
RA=Restricted
Update Fuel Prices
 

Would you like to see your business listed on this page?

 If your business provides an interesting product or service to pilots, flight crews, aircraft, or users of the Charles R Johnson Airport, you should consider listing it here.  To start the listing process, click on the button below
 
Add a business
 

Other Pages about Charles R Johnson Airport

Update a link
 
Copyright © AirNav, LLC. All rights reserved. Privacy Policy  Contact